Roseville, California
Current Conditions -  °F | °C
As of 12:15 PM on Thursday 18 Dec 2014 (Local Time) from KMCC Reporting Station
Few Clouds Few Clouds  
Wind Chill: 57°   Ceiling: Unl
Heat Index: 57°   Visibility: 9mi
Dew Point: 46°   Wind: 9mph
Humidity: 67%   Direction: 140°SE
Pressure: 30.19"   Gusts: NA
Location:  38.75°N, 121.28°W
Report Text: KMCC 182015Z AUTO 14008KT 9SM FEW025 14/08 A3019 RMK AO2
Loading
Personal Weather Stations






























Interactive Weather Map New forecast layout! Learn more

10-Day Weather Forecast

Advertisements
Track Severe Weather on mobile